Time;durP1;ratioP1;P1;durP2;ratioP2;P2;SDS_P1;SDS_P2;PMS_P1;PMS_P2;Temp;Humidity;BMP_temperature;BMP_pressure;BME280_temperature;BME280_humidity;BME280_pressure;Samples;Min_cycle;Max_cycle;Signal;HPM_P1;HPM_P2
2022/03/26 00:02:31;;;;;;;31.43;19.23;;;13.20;99.90;;;;;;10294134;28;20222;-85
2022/03/26 00:07:34;;;;;;;23.33;16.17;;;13.30;99.90;;;;;;10293703;28;20261;-85
2022/03/26 00:12:37;;;;;;;17.47;12.93;;;13.40;99.90;;;;;;10293895;28;20231;-84
2022/03/26 00:17:39;;;;;;;17.37;12.60;;;13.90;99.90;;;;;;10275889;28;20225;-84
2022/03/26 00:22:42;;;;;;;17.47;12.50;;;14.20;99.90;;;;;;10276411;28;20706;-84
2022/03/26 00:27:44;;;;;;;18.33;13.20;;;14.50;99.90;;;;;;10292178;28;20243;-84
2022/03/26 00:32:47;;;;;;;17.57;11.90;;;14.80;99.90;;;;;;10292408;28;20261;-84
2022/03/26 00:37:52;;;;;;;15.87;12.07;;;15.10;99.90;;;;;;10274951;28;20241;-84
2022/03/26 00:42:54;;;;;;;17.73;12.73;;;15.10;99.90;;;;;;10292391;28;20248;-84
2022/03/26 00:47:57;;;;;;;14.90;11.93;;;15.40;99.90;;;;;;10274496;28;20252;-85
2022/03/26 00:53:00;;;;;;;18.50;13.63;;;15.60;99.90;;;;;;10291477;28;20253;-84
2022/03/26 00:58:02;;;;;;;17.83;12.70;;;15.70;99.90;;;;;;10291709;28;20274;-84
2022/03/26 01:03:08;;;;;;;17.13;13.10;;;15.70;99.90;;;;;;10274150;28;20333;-84
2022/03/26 01:08:11;;;;;;;19.63;13.40;;;15.80;99.90;;;;;;10274177;28;20291;-85
2022/03/26 01:13:14;;;;;;;18.23;13.50;;;15.80;99.90;;;;;;10291339;28;20292;-84
2022/03/26 01:18:17;;;;;;;16.13;13.43;;;15.70;99.90;;;;;;10291303;28;20285;-85
2022/03/26 01:23:20;;;;;;;17.27;11.87;;;15.70;99.90;;;;;;10290556;28;20260;-84
2022/03/26 01:28:22;;;;;;;17.97;13.93;;;15.90;99.90;;;;;;10291087;28;20250;-85
2022/03/26 01:33:25;;;;;;;15.23;12.53;;;16.00;99.90;;;;;;10290585;28;20503;-84
2022/03/26 01:38:27;;;;;;;16.63;12.63;;;16.10;99.90;;;;;;10273467;28;20280;-84
2022/03/26 01:43:29;;;;;;;22.50;14.87;;;16.10;99.90;;;;;;10272984;28;20682;-85
2022/03/26 01:48:32;;;;;;;17.40;13.00;;;15.90;99.90;;;;;;10290206;28;20254;-85
2022/03/26 01:53:35;;;;;;;16.63;13.13;;;16.00;99.90;;;;;;10289150;28;20307;-84
2022/03/26 01:58:37;;;;;;;17.33;13.33;;;15.90;99.90;;;;;;10271721;28;20280;-84
2022/03/26 02:03:40;;;;;;;17.63;13.67;;;16.10;99.90;;;;;;10272253;28;20296;-84
2022/03/26 02:08:43;;;;;;;18.30;14.23;;;16.20;99.90;;;;;;10272667;28;20306;-84
2022/03/26 02:13:49;;;;;;;18.60;13.67;;;16.20;99.90;;;;;;10272028;28;20256;-84
2022/03/26 02:18:52;;;;;;;21.80;14.80;;;16.10;99.90;;;;;;10288626;28;20307;-85
2022/03/26 02:23:55;;;;;;;21.10;14.40;;;16.10;99.90;;;;;;10287843;28;20237;-84
2022/03/26 02:29:12;;;;;;;15.77;12.47;;;16.00;99.90;;;;;;10288454;28;20788;-84
2022/03/26 02:34:15;;;;;;;18.70;14.27;;;16.10;99.90;;;;;;10270174;28;20256;-84
2022/03/26 02:39:17;;;;;;;20.97;13.80;;;16.10;99.90;;;;;;10270523;28;20276;-84
2022/03/26 02:44:20;;;;;;;22.67;14.70;;;16.10;99.90;;;;;;10288532;28;20205;-84
2022/03/26 02:49:22;;;;;;;20.00;14.43;;;16.00;99.90;;;;;;10287099;28;20301;-84
2022/03/26 02:54:25;;;;;;;18.47;13.37;;;16.00;99.90;;;;;;10287191;28;20315;-84
2022/03/26 02:59:28;;;;;;;19.67;14.23;;;16.00;99.90;;;;;;10270774;28;20253;-84
2022/03/26 03:04:30;;;;;;;21.37;14.50;;;16.10;99.90;;;;;;10286533;28;20696;-85
2022/03/26 03:09:33;;;;;;;17.63;13.67;;;16.10;99.90;;;;;;10269247;28;20257;-84
2022/03/26 03:14:36;;;;;;;21.47;13.67;;;16.10;99.90;;;;;;10270187;28;20286;-85
2022/03/26 03:19:39;;;;;;;19.80;14.57;;;16.10;99.90;;;;;;10287194;28;20330;-84
2022/03/26 03:24:41;;;;;;;17.70;13.83;;;;;;;;;;10286518;28;20831;-84
2022/03/26 03:29:44;;;;;;;19.70;14.00;;;16.20;99.90;;;;;;10269070;28;20249;-84
2022/03/26 03:34:46;;;;;;;17.23;14.50;;;16.20;99.90;;;;;;10269411;28;20235;-85
2022/03/26 03:39:50;;;;;;;21.67;13.03;;;16.30;99.90;;;;;;10268286;28;20705;-84
2022/03/26 03:44:52;;;;;;;19.37;15.40;;;16.30;99.60;;;;;;10286372;28;20655;-84
2022/03/26 03:49:55;;;;;;;21.73;14.50;;;16.30;96.90;;;;;;10268184;28;20362;-84
2022/03/26 03:54:57;;;;;;;22.23;13.90;;;16.40;98.60;;;;;;10268762;28;20707;-84
2022/03/26 04:00:01;;;;;;;19.50;14.57;;;16.20;98.40;;;;;;10268921;28;20691;-84
2022/03/26 04:05:14;;;;;;;19.53;14.27;;;16.30;98.10;;;;;;10296653;28;20268;-84
2022/03/26 04:10:18;;;;;;;18.60;14.77;;;16.30;97.60;;;;;;10268767;28;20247;-84
2022/03/26 04:15:20;;;;;;;20.00;14.57;;;16.30;97.50;;;;;;10267729;28;20306;-84
2022/03/26 04:20:23;;;;;;;17.97;13.37;;;16.20;97.30;;;;;;10272896;28;20272;-84
2022/03/26 04:25:25;;;;;;;22.00;13.97;;;16.00;97.20;;;;;;10292358;28;20266;-84
2022/03/26 04:30:28;;;;;;;19.57;14.27;;;16.00;97.10;;;;;;10274928;28;20326;-84
2022/03/26 04:35:31;;;;;;;21.40;15.10;;;16.10;96.70;;;;;;10292821;28;20230;-84
2022/03/26 04:40:33;;;;;;;20.23;14.13;;;16.10;96.40;;;;;;10274690;28;20246;-84
2022/03/26 04:45:35;;;;;;;19.63;15.10;;;16.10;96.10;;;;;;10275071;28;20223;-84
2022/03/26 04:50:38;;;;;;;22.77;14.17;;;16.10;95.90;;;;;;10292761;28;20280;-84
2022/03/26 04:55:40;;;;;;;22.90;14.17;;;16.10;95.70;;;;;;10292145;28;20785;-84
2022/03/26 05:00:43;;;;;;;21.50;14.10;;;16.20;95.40;;;;;;10274734;28;20808;-85
2022/03/26 05:05:46;;;;;;;26.37;16.10;;;16.10;95.30;;;;;;10291472;28;20229;-84
2022/03/26 05:10:48;;;;;;;18.93;14.37;;;16.10;95.10;;;;;;10274630;28;20299;-84
2022/03/26 05:15:51;;;;;;;21.27;14.43;;;16.30;94.70;;;;;;10291344;28;20198;-84
2022/03/26 05:20:57;;;;;;;23.30;16.20;;;16.30;94.60;;;;;;10291696;28;20291;-84
2022/03/26 05:26:01;;;;;;;22.90;14.43;;;16.10;94.40;;;;;;10273638;28;20558;-84
2022/03/26 05:31:03;;;;;;;21.63;15.33;;;16.10;94.40;;;;;;10290344;28;20280;-84
2022/03/26 05:36:06;;;;;;;21.67;14.77;;;16.30;93.60;;;;;;10273418;28;20226;-84
2022/03/26 05:41:08;;;;;;;20.43;14.07;;;16.30;93.60;;;;;;10308047;28;20771;-84
2022/03/26 05:46:11;;;;;;;25.30;14.67;;;16.40;93.20;;;;;;10309502;28;20188;-84
2022/03/26 05:51:13;;;;;;;18.10;13.77;;;16.50;92.70;;;;;;10308936;28;20305;-84
2022/03/26 05:56:16;;;;;;;22.00;15.07;;;16.40;92.40;;;;;;10295619;28;20316;-84
2022/03/26 06:01:20;;;;;;;23.57;14.87;;;16.40;92.00;;;;;;10309434;28;20618;-85
2022/03/26 06:06:23;;;;;;;21.40;14.03;;;16.30;91.90;;;;;;10309647;28;20315;-84
2022/03/26 06:11:27;;;;;;;18.77;14.27;;;16.40;92.00;;;;;;10305331;28;20234;-84
2022/03/26 06:16:29;;;;;;;20.20;13.73;;;16.40;91.70;;;;;;10330680;28;20234;-84
2022/03/26 06:21:34;;;;;;;20.17;14.47;;;16.30;90.20;;;;;;10352593;28;20190;-84
2022/03/26 06:26:39;;;;;;;21.37;14.67;;;16.30;91.80;;;;;;10347873;28;20241;-84
2022/03/26 06:31:42;;;;;;;22.60;13.30;;;16.20;91.60;;;;;;10352155;28;20195;-84
2022/03/26 06:36:44;;;;;;;22.80;14.33;;;16.40;91.40;;;;;;10339774;28;20175;-84
2022/03/26 06:41:47;;;;;;;20.90;15.13;;;16.40;91.00;;;;;;10335807;28;20728;-84
2022/03/26 06:46:49;;;;;;;21.77;14.97;;;16.30;90.90;;;;;;10324031;28;20225;-85
2022/03/26 06:51:52;;;;;;;19.57;13.47;;;16.00;89.40;;;;;;10341045;28;20217;-85
2022/03/26 06:56:55;;;;;;;20.07;13.77;;;16.30;90.70;;;;;;10339626;28;20205;-84
2022/03/26 07:01:57;;;;;;;19.37;12.93;;;16.30;89.80;;;;;;10323187;28;20236;-85
2022/03/26 07:07:00;;;;;;;18.33;13.20;;;16.20;90.60;;;;;;10340380;28;20218;-85
2022/03/26 07:12:07;;;;;;;21.20;14.20;;;16.40;90.20;;;;;;10341386;28;20213;-85
2022/03/26 07:17:10;;;;;;;18.60;12.67;;;15.80;86.90;;;;;;10318983;28;20207;-85
2022/03/26 07:22:12;;;;;;;22.80;14.03;;;16.30;90.00;;;;;;10316631;28;20202;-84
2022/03/26 07:27:14;;;;;;;18.00;13.03;;;16.50;87.50;;;;;;10322901;28;20260;-84
2022/03/26 07:32:17;;;;;;;18.13;12.57;;;16.40;88.80;;;;;;10312961;28;20198;-85
2022/03/26 07:37:20;;;;;;;18.60;13.43;;;16.40;88.10;;;;;;10278096;28;20668;-85
2022/03/26 07:42:22;;;;;;;16.73;12.17;;;16.50;87.30;;;;;;10272119;28;20234;-85
2022/03/26 07:47:26;;;;;;;18.30;11.40;;;16.70;87.10;;;;;;10270935;28;20222;-84
2022/03/26 07:52:28;;;;;;;17.97;12.60;;;16.70;86.60;;;;;;10272431;28;20226;-85
2022/03/26 07:57:31;;;;;;;23.90;13.53;;;16.60;86.90;;;;;;10299802;28;20240;-85
2022/03/26 08:02:33;;;;;;;18.17;12.77;;;16.50;85.00;;;;;;10299279;28;20225;-84
2022/03/26 08:07:36;;;;;;;15.83;11.73;;;16.00;88.30;;;;;;10278822;28;20374;-85
2022/03/26 08:12:39;;;;;;;17.73;11.60;;;16.30;86.90;;;;;;10276929;28;20236;-84
2022/03/26 08:17:41;;;;;;;16.83;12.50;;;16.40;85.40;;;;;;10295001;28;20255;-85
2022/03/26 08:22:44;;;;;;;23.90;13.13;;;16.50;86.40;;;;;;10278221;28;20225;-85
2022/03/26 08:27:46;;;;;;;20.67;12.30;;;16.30;85.60;;;;;;10276339;28;20260;-85
2022/03/26 08:32:49;;;;;;;14.87;11.03;;;15.90;83.20;;;;;;10278161;28;20300;-85
2022/03/26 08:37:51;;;;;;;18.77;10.53;;;16.20;87.20;;;;;;10276865;28;20622;-84
2022/03/26 08:42:54;;;;;;;15.53;11.17;;;16.50;84.20;;;;;;10291223;28;20234;-84
2022/03/26 08:47:56;;;;;;;15.30;10.43;;;16.50;85.00;;;;;;10290163;28;20253;-84
2022/03/26 08:52:59;;;;;;;13.67;9.93;;;16.20;86.00;;;;;;10290544;28;20270;-84
2022/03/26 08:58:02;;;;;;;12.67;9.93;;;16.40;85.20;;;;;;10273925;28;20214;-84
2022/03/26 09:03:05;;;;;;;16.50;10.77;;;16.50;85.50;;;;;;10273886;28;20229;-84
2022/03/26 09:08:07;;;;;;;19.70;10.27;;;16.50;84.90;;;;;;10273747;28;20697;-84
2022/03/26 09:13:10;;;;;;;15.33;9.30;;;16.30;83.70;;;;;;10273135;28;20230;-84
2022/03/26 09:18:13;;;;;;;13.33;10.60;;;16.60;85.10;;;;;;10289437;28;20742;-84
2022/03/26 09:23:15;;;;;;;12.37;10.07;;;16.60;84.00;;;;;;10273246;28;20300;-84
2022/03/26 09:28:18;;;;;;;14.47;10.83;;;16.70;84.50;;;;;;10272956;28;20405;-84
2022/03/26 09:33:21;;;;;;;16.17;10.30;;;16.70;83.20;;;;;;10270523;28;20731;-84
2022/03/26 09:38:24;;;;;;;13.43;9.50;;;16.80;84.00;;;;;;10272839;28;20237;-84
2022/03/26 09:43:29;;;;;;;12.97;9.37;;;16.60;84.30;;;;;;10289962;28;20287;-84
2022/03/26 09:48:32;;;;;;;15.30;10.53;;;16.70;83.20;;;;;;10271002;28;20250;-84
2022/03/26 09:53:34;;;;;;;19.27;10.23;;;16.40;83.70;;;;;;10269299;28;20252;-83
2022/03/26 09:58:37;;;;;;;21.63;10.23;;;16.10;84.10;;;;;;10271047;28;20244;-84
2022/03/26 10:03:41;;;;;;;23.53;15.17;;;15.50;84.90;;;;;;10288836;28;20229;-84
2022/03/26 10:08:48;;;;;;;13.80;8.33;;;15.00;81.30;;;;;;10287275;28;20308;-84
2022/03/26 10:13:52;;;;;;;15.10;9.43;;;15.50;88.90;;;;;;10289187;28;20224;-84
2022/03/26 10:18:58;;;;;;;24.10;12.10;;;16.20;86.20;;;;;;10253913;28;20276;-84
2022/03/26 10:24:00;;;;;;;30.97;16.30;;;16.10;85.30;;;;;;10287324;28;20234;-86
2022/03/26 10:29:04;;;;;;;25.57;16.07;;;12.90;88.90;;;;;;10287384;28;20295;-84
2022/03/26 10:34:11;;;;;;;18.27;11.60;;;12.50;93.20;;;;;;10288072;28;20260;-84
2022/03/26 10:39:25;;;;;;;17.77;9.13;;;14.80;94.10;;;;;;10287095;28;20247;-84
2022/03/26 10:44:29;;;;;;;39.70;10.97;;;15.70;91.80;;;;;;10285615;28;20299;-85
2022/03/26 10:49:38;;;;;;;20.47;10.23;;;15.80;91.00;;;;;;10269787;28;20249;-84
2022/03/26 10:54:40;;;;;;;19.70;11.47;;;16.40;90.00;;;;;;10254051;28;20686;-84
2022/03/26 10:59:43;;;;;;;21.37;11.47;;;16.50;88.50;;;;;;10269619;28;20237;-84
2022/03/26 11:04:45;;;;;;;17.43;12.10;;;16.30;87.40;;;;;;10287452;28;20229;-84
2022/03/26 11:09:49;;;;;;;15.00;10.77;;;16.10;89.10;;;;;;10286660;28;20253;-84
2022/03/26 11:14:53;;;;;;;16.57;10.80;;;16.40;88.30;;;;;;10268835;28;20297;-84
2022/03/26 11:20:31;;;;;;;17.07;10.87;;;15.80;89.60;;;;;;10286088;28;20261;-84
2022/03/26 11:25:58;;;;;;;16.53;10.50;;;15.40;90.70;;;;;;10286430;28;20241;-83
2022/03/26 11:31:31;;;;;;;43.90;25.10;;;15.20;91.20;;;;;;10274527;28;20260;-85
2022/03/26 11:36:34;;;;;;;42.13;23.43;;;14.60;97.60;;;;;;10277695;28;20225;-84
2022/03/26 11:41:39;;;;;;;54.20;31.47;;;14.00;97.10;;;;;;10276712;28;20331;-85
2022/03/26 11:52:15;;;;;;;29.70;18.23;;;13.90;97.40;;;;;;10293314;28;20265;-85
2022/03/26 11:57:20;;;;;;;35.03;20.07;;;13.10;92.90;;;;;;10292773;28;20554;-85
2022/03/26 12:02:28;;;;;;;37.63;21.67;;;12.70;95.00;;;;;;10293340;28;20663;-85
2022/03/26 12:07:30;;;;;;;31.97;19.93;;;13.20;99.90;;;;;;10294254;28;20601;-84
2022/03/26 12:12:51;;;;;;;47.53;21.37;;;12.70;93.80;;;;;;10274856;28;20243;-84
2022/03/26 12:18:10;;;;;;;32.57;18.03;;;11.60;99.90;;;;;;10281388;28;20245;-84
2022/03/26 12:23:15;;;;;;;33.93;19.93;;;12.30;95.80;;;;;;10293767;28;20239;-86
2022/03/26 12:28:40;;;;;;;29.27;17.60;;;12.50;99.90;;;;;;10274803;28;20757;-85
2022/03/26 12:33:43;;;;;;;33.90;19.93;;;12.00;95.60;;;;;;10292608;28;20229;-85
2022/03/26 12:38:50;;;;;;;43.30;24.60;;;11.60;98.50;;;;;;10274578;28;20262;-86
2022/03/26 12:43:54;;;;;;;34.87;20.83;;;11.10;99.90;;;;;;10292183;28;20670;-84
2022/03/26 12:48:58;;;;;;;32.27;18.93;;;11.10;99.30;;;;;;10274201;28;20254;-85
2022/03/26 12:54:00;;;;;;;31.40;17.57;;;10.70;99.90;;;;;;10273888;28;20337;-84
2022/03/26 12:59:03;;;;;;;30.60;19.00;;;11.20;99.90;;;;;;10289885;28;20618;-84
2022/03/26 13:04:06;;;;;;;24.20;14.80;;;13.50;99.90;;;;;;10273201;28;20754;-84
2022/03/26 13:09:08;;;;;;;23.80;14.27;;;13.80;91.10;;;;;;10280498;28;20269;-84
2022/03/26 13:14:11;;;;;;;23.47;13.83;;;13.60;95.80;;;;;;10295738;28;20241;-84
2022/03/26 13:19:14;;;;;;;24.27;14.17;;;12.50;97.30;;;;;;10308231;28;20225;-85
2022/03/26 13:24:21;;;;;;;16.93;11.77;;;13.10;99.90;;;;;;10290645;28;20353;-85
2022/03/26 13:29:26;;;;;;;16.73;11.17;;;13.60;97.00;;;;;;10272849;28;20684;-85
2022/03/26 13:34:29;;;;;;;18.50;11.70;;;15.20;99.90;;;;;;10273254;28;20229;-85
2022/03/26 13:39:32;;;;;;;30.60;18.23;;;;;;;;;;10289910;28;20289;-82
2022/03/26 13:44:35;;;;;;;24.60;14.90;;;10.60;98.90;;;;;;10272216;28;20239;-82
2022/03/26 13:49:38;;;;;;;29.87;15.20;;;10.20;99.90;;;;;;10272243;28;20711;-85
2022/03/26 13:54:41;;;;;;;30.00;16.50;;;10.00;99.90;;;;;;10287264;28;20790;-85
2022/03/26 13:59:48;;;;;;;20.53;12.70;;;14.00;99.90;;;;;;10288332;28;20245;-86
2022/03/26 14:04:50;;;;;;;27.57;13.20;;;14.80;99.90;;;;;;10288479;28;20288;-86
2022/03/26 14:09:53;;;;;;;21.70;13.77;;;15.20;99.90;;;;;;10287570;28;20627;-85
2022/03/26 14:14:56;;;;;;;29.33;13.77;;;14.30;94.10;;;;;;10270924;28;20749;-86
2022/03/26 14:19:58;;;;;;;19.30;11.87;;;15.40;99.90;;;;;;10286999;28;20241;-86
2022/03/26 14:25:01;;;;;;;16.50;12.07;;;15.80;99.90;;;;;;10285080;28;20241;-86
2022/03/26 14:30:03;;;;;;;19.97;11.67;;;15.90;99.90;;;;;;10271006;28;20252;-85
2022/03/26 14:35:06;;;;;;;16.90;11.33;;;15.60;99.90;;;;;;10270316;28;20227;-85
2022/03/26 14:40:13;;;;;;;15.30;11.10;;;15.90;99.90;;;;;;10287187;28;20282;-85
2022/03/26 14:45:16;;;;;;;19.73;11.10;;;15.70;99.90;;;;;;10269665;28;20250;-85
2022/03/26 14:50:19;;;;;;;16.20;10.90;;;15.80;92.70;;;;;;10286717;28;20640;-85
2022/03/26 14:55:23;;;;;;;18.80;12.30;;;16.00;99.90;;;;;;10286212;28;20320;-85
2022/03/26 15:00:26;;;;;;;13.83;10.43;;;16.10;97.50;;;;;;10287798;28;20233;-84
2022/03/26 15:05:30;;;;;;;14.97;10.10;;;15.50;99.90;;;;;;10286918;28;20309;-85
2022/03/26 15:10:33;;;;;;;17.83;11.13;;;15.20;99.90;;;;;;10286980;28;20319;-85
2022/03/26 15:15:35;;;;;;;13.63;10.20;;;15.70;96.20;;;;;;10286907;28;20229;-85
2022/03/26 15:20:38;;;;;;;11.97;8.67;;;15.90;98.80;;;;;;10272077;28;20280;-85
2022/03/26 15:25:40;;;;;;;18.20;10.20;;;15.20;99.90;;;;;;10285931;28;20288;-85
2022/03/26 15:30:43;;;;;;;13.90;9.67;;;15.70;89.30;;;;;;10285118;28;20635;-85
2022/03/26 15:35:45;;;;;;;13.37;9.03;;;15.00;99.90;;;;;;10268728;28;20620;-85
2022/03/26 15:40:48;;;;;;;14.53;9.70;;;15.60;98.00;;;;;;10268275;28;20216;-85
2022/03/26 15:45:50;;;;;;;10.53;8.73;;;14.60;99.60;;;;;;10267662;28;20237;-85
2022/03/26 15:50:53;;;;;;;14.87;9.67;;;;;;;;;;10268132;28;20266;-85
2022/03/26 15:55:56;;;;;;;16.93;9.57;;;13.60;99.90;;;;;;10265652;28;20237;-85
2022/03/26 16:00:59;;;;;;;12.60;8.20;;;14.60;99.50;;;;;;10242366;29;20723;-85
2022/03/26 16:06:02;;;;;;;11.53;8.47;;;15.40;98.30;;;;;;10245072;28;20996;-85
2022/03/26 16:11:04;;;;;;;12.70;8.57;;;15.20;98.30;;;;;;10242425;29;20251;-85
2022/03/26 16:16:07;;;;;;;12.23;9.03;;;13.50;99.90;;;;;;10231589;29;20250;-85
2022/03/26 16:21:10;;;;;;;13.70;9.40;;;13.70;96.90;;;;;;10234814;29;20250;-85
2022/03/26 16:26:13;;;;;;;13.03;8.43;;;12.90;99.90;;;;;;10235363;29;20243;-86
2022/03/26 16:31:16;;;;;;;29.67;15.60;;;13.20;99.90;;;;;;10234577;29;20304;-84
2022/03/26 16:36:18;;;;;;;29.37;16.93;;;12.50;99.90;;;;;;10248518;29;20823;-86
2022/03/26 16:41:21;;;;;;;32.33;17.33;;;11.60;97.50;;;;;;10249735;28;20269;-86
2022/03/26 16:46:26;;;;;;;13.67;8.63;;;11.70;99.90;;;;;;10249194;29;20238;-86
2022/03/26 16:51:28;;;;;;;18.73;10.83;;;12.60;99.90;;;;;;10256103;28;20264;-92
2022/03/26 16:56:33;;;;;;;29.60;15.00;;;12.40;99.90;;;;;;10272553;28;20296;-93
2022/03/26 17:01:35;;;;;;;19.07;11.43;;;11.30;98.40;;;;;;10272418;28;20241;-94
2022/03/26 17:06:38;;;;;;;16.60;11.93;;;11.30;98.60;;;;;;10273004;28;20641;-93
2022/03/26 17:11:40;;;;;;;23.87;10.27;;;11.10;98.80;;;;;;10272048;28;20667;-92
2022/03/26 17:16:45;;;;;;;11.93;8.47;;;11.10;97.30;;;;;;10270819;28;20268;-92
2022/03/26 17:21:51;;;;;;;10.60;8.03;;;10.70;99.20;;;;;;10292347;28;20260;-93
2022/03/26 17:26:54;;;;;;;31.27;13.90;;;11.10;99.50;;;;;;10275084;28;20635;-93
2022/03/26 17:31:56;;;;;;;15.13;8.77;;;10.60;99.00;;;;;;10290514;28;20261;-92
2022/03/26 17:36:59;;;;;;;12.53;9.23;;;10.90;99.50;;;;;;10274835;28;20206;-92
2022/03/26 17:42:02;;;;;;;10.80;7.67;;;10.70;99.90;;;;;;10275059;28;20206;-92
2022/03/26 17:47:07;;;;;;;28.43;15.13;;;10.00;99.30;;;;;;10275202;28;20205;-93
2022/03/26 17:52:10;;;;;;;14.07;9.47;;;9.70;99.90;;;;;;10274955;28;20241;-92
2022/03/26 17:57:12;;;;;;;17.77;9.70;;;9.80;99.90;;;;;;10275124;28;20587;-92
2022/03/26 18:02:16;;;;;;;19.30;10.87;;;10.20;99.90;;;;;;10258073;28;20202;-94
2022/03/26 18:07:20;;;;;;;17.83;9.77;;;9.00;99.90;;;;;;10271309;28;20267;-91
2022/03/26 18:12:23;;;;;;;20.23;8.67;;;9.20;99.90;;;;;;10271820;28;20279;-92
2022/03/26 18:17:25;;;;;;;13.50;7.20;;;9.60;99.90;;;;;;10276650;28;20602;-91
2022/03/26 18:22:28;;;;;;;13.63;9.30;;;10.90;99.90;;;;;;10287392;28;21006;-91
2022/03/26 18:27:31;;;;;;;10.33;6.50;;;12.00;99.90;;;;;;10283504;28;20287;-90
2022/03/26 18:32:35;;;;;;;11.87;7.17;;;12.10;99.90;;;;;;10274072;28;20252;-91
2022/03/26 18:37:37;;;;;;;20.57;11.33;;;12.50;99.90;;;;;;10294745;28;20269;-90
2022/03/26 18:42:41;;;;;;;14.83;6.60;;;12.70;99.90;;;;;;10286458;28;20289;-91
2022/03/26 18:47:44;;;;;;;16.53;8.97;;;12.50;99.90;;;;;;10285204;28;20244;-91
2022/03/26 18:52:47;;;;;;;13.67;8.47;;;12.00;95.20;;;;;;10269828;28;20261;-90
2022/03/26 18:57:49;;;;;;;12.20;6.50;;;12.60;99.90;;;;;;10269036;28;20778;-91
2022/03/26 19:02:52;;;;;;;8.70;6.47;;;13.30;99.90;;;;;;10270125;28;20434;-91
2022/03/26 19:07:58;;;;;;;9.47;6.03;;;14.10;99.90;;;;;;10270358;28;20209;-90
2022/03/26 19:13:02;;;;;;;6.90;5.63;;;14.30;99.90;;;;;;10269802;28;20648;-92
2022/03/26 19:18:05;;;;;;;12.03;6.83;;;14.20;99.90;;;;;;10295860;28;20263;-91
2022/03/26 19:23:07;;;;;;;12.17;7.07;;;14.30;99.80;;;;;;10274157;28;20198;-91
2022/03/26 19:28:10;;;;;;;9.47;5.57;;;14.50;99.40;;;;;;10254211;28;20280;-91
2022/03/26 19:33:14;;;;;;;8.83;5.47;;;14.50;99.20;;;;;;10269549;28;20261;-91
2022/03/26 19:38:17;;;;;;;6.93;5.30;;;14.40;99.10;;;;;;10269743;28;20233;-94
2022/03/26 19:43:19;;;;;;;11.27;6.13;;;14.50;99.20;;;;;;10269336;28;20252;-92
2022/03/26 19:48:22;;;;;;;7.80;4.70;;;14.70;98.10;;;;;;10269742;28;20300;-92
2022/03/26 19:53:26;;;;;;;7.50;5.40;;;15.00;97.40;;;;;;10239952;28;20306;-91
2022/03/26 19:58:29;;;;;;;20.70;12.23;;;15.30;96.00;;;;;;10269535;28;20238;-92
2022/03/26 20:03:32;;;;;;;7.73;4.97;;;14.50;90.60;;;;;;10294559;28;20622;-93
2022/03/26 20:08:34;;;;;;;9.33;5.87;;;15.00;96.60;;;;;;10275455;28;20275;-92
2022/03/26 20:13:37;;;;;;;13.17;7.37;;;15.30;95.40;;;;;;10276746;28;20331;-91
2022/03/26 20:18:39;;;;;;;6.37;5.23;;;15.20;93.40;;;;;;10276702;28;20659;-92
2022/03/26 20:23:42;;;;;;;7.93;5.37;;;15.10;95.00;;;;;;10264229;28;20237;-91
2022/03/26 20:28:45;;;;;;;8.13;5.77;;;15.20;94.70;;;;;;10275354;28;20277;-91
2022/03/26 20:33:47;;;;;;;16.30;9.53;;;14.80;95.60;;;;;;10299292;28;20626;-91
2022/03/26 20:38:50;;;;;;;22.60;12.37;;;13.30;95.00;;;;;;10285785;28;20269;-91
2022/03/26 20:43:52;;;;;;;30.97;15.57;;;12.20;95.80;;;;;;10292614;28;20288;-90
2022/03/26 20:48:55;;;;;;;21.33;12.47;;;11.50;94.00;;;;;;10274447;28;20253;-91
2022/03/26 20:53:57;;;;;;;18.17;11.20;;;11.70;98.40;;;;;;10274596;28;20292;-92
2022/03/26 20:59:00;;;;;;;17.17;10.60;;;10.90;92.50;;;;;;10274201;28;20773;-90
2022/03/26 21:04:03;;;;;;;15.00;9.90;;;10.10;97.30;;;;;;10282868;28;20327;-92
2022/03/26 21:09:08;;;;;;;17.30;9.93;;;9.90;99.90;;;;;;10273730;28;20251;-91
2022/03/26 21:14:12;;;;;;;11.33;6.27;;;8.90;99.90;;;;;;10284267;28;20722;-90
2022/03/26 21:19:15;;;;;;;15.07;8.40;;;10.30;99.90;;;;;;10291143;28;20717;-90
2022/03/26 21:24:17;;;;;;;9.73;6.17;;;10.60;91.50;;;;;;10308888;28;20793;-90
2022/03/26 21:29:19;;;;;;;11.90;6.63;;;10.40;99.90;;;;;;10306245;28;20303;-89
2022/03/26 21:34:22;;;;;;;10.87;6.27;;;9.70;94.70;;;;;;10290515;28;20248;-90
2022/03/26 21:39:25;;;;;;;11.00;5.67;;;9.70;99.90;;;;;;10288892;28;20226;-91
2022/03/26 21:44:27;;;;;;;16.43;5.93;;;10.20;96.90;;;;;;10286670;28;20233;-92
2022/03/26 21:49:30;;;;;;;9.50;5.27;;;10.80;91.40;;;;;;10276457;28;20229;-93
2022/03/26 21:54:32;;;;;;;9.47;5.93;;;11.60;95.80;;;;;;10245157;28;20775;-93
2022/03/26 21:59:35;;;;;;;8.13;4.67;;;11.80;99.90;;;;;;10250057;28;20257;-93
2022/03/26 22:04:38;;;;;;;7.20;4.60;;;11.90;99.90;;;;;;10259403;28;20268;-93
2022/03/26 22:09:40;;;;;;;7.47;4.80;;;11.00;99.90;;;;;;10254828;28;20248;-93
2022/03/26 22:14:43;;;;;;;6.00;4.07;;;11.60;99.90;;;;;;10248695;28;20391;-94
2022/03/26 22:19:46;;;;;;;6.83;4.73;;;11.70;99.90;;;;;;10233245;28;20210;-92
2022/03/26 22:24:48;;;;;;;7.83;4.97;;;11.00;99.90;;;;;;10250166;29;20204;-93
2022/03/26 22:29:51;;;;;;;8.10;4.33;;;11.10;99.90;;;;;;10250862;28;20281;-92
2022/03/26 22:34:54;;;;;;;6.17;4.17;;;11.00;99.90;;;;;;10251062;28;20265;-94
2022/03/26 22:45:20;;;;;;;6.37;4.50;;;11.20;99.90;;;;;;10262422;28;20206;-92
2022/03/26 22:50:23;;;;;;;6.77;5.20;;;11.90;99.90;;;;;;10271767;28;20274;-93
2022/03/26 22:55:28;;;;;;;4.47;3.93;;;12.20;99.90;;;;;;10250520;28;20262;-92
2022/03/26 23:00:31;;;;;;;6.00;5.10;;;12.30;99.90;;;;;;10233885;29;20210;-93
2022/03/26 23:05:33;;;;;;;8.63;4.93;;;11.80;99.90;;;;;;10250432;28;20234;-93
2022/03/26 23:10:36;;;;;;;7.23;4.60;;;11.80;99.90;;;;;;10246964;28;20262;-93
2022/03/26 23:15:41;;;;;;;7.70;4.33;;;11.60;99.90;;;;;;10247769;28;20253;-95
2022/03/26 23:20:44;;;;;;;7.23;4.53;;;11.90;99.90;;;;;;10248570;28;20213;-93
2022/03/26 23:25:47;;;;;;;6.23;5.13;;;12.10;99.90;;;;;;10275656;28;20242;-92
2022/03/26 23:30:49;;;;;;;7.43;4.43;;;12.30;99.90;;;;;;10261536;28;20734;-93
2022/03/26 23:35:52;;;;;;;6.73;4.67;;;12.40;99.90;;;;;;10262196;29;20251;-92
2022/03/26 23:40:54;;;;;;;10.03;5.43;;;13.10;99.90;;;;;;10262599;28;20638;-93
2022/03/26 23:45:57;;;;;;;5.70;4.60;;;12.40;99.90;;;;;;10243595;29;20242;-92
2022/03/26 23:50:59;;;;;;;7.47;5.37;;;12.00;99.90;;;;;;10227486;28;20261;-93
2022/03/26 23:56:02;;;;;;;8.33;5.43;;;11.80;99.90;;;;;;10245312;28;20206;-93
